Time,TemperatureF,DewpointF,PressureIn,WindDirection,WindDirectionDegrees,WindSpeedMPH,WindSpeedGustMPH,Humidity,HourlyPrecipIn,Conditions,Clouds,dailyrainin,SolarRadiationWatts/m^2,SoftwareType,DateUTC
2013-01-20 00:05:00,35.6,33.8,30.14,South,175,0.0,1.0,93,0.00,,,0.00,0,Wunderground v.1.15,2013-01-20 05:05:00,
2013-01-20 00:10:00,35.2,33.1,30.14,South,175,0.0,1.0,92,0.00,,,0.00,0,Wunderground v.1.15,2013-01-20 05:10:00,
2013-01-20 00:15:00,35.0,32.9,30.14,South,176,0.0,1.0,92,0.00,,,0.00,0,Wunderground v.1.15,2013-01-20 05:15:00,
2013-01-20 00:20:00,34.9,33.1,30.14,South,175,0.0,1.0,93,0.00,,,0.00,0,Wunderground v.1.15,2013-01-20 05:20:00,
2013-01-20 00:25:00,35.0,33.2,30.13,South,175,0.0,1.0,93,0.00,,,0.00,0,Wunderground v.1.15,2013-01-20 05:25:00,
2013-01-20 00:30:00,34.7,32.6,30.14,South,175,0.0,1.0,92,0.00,,,0.00,0,Wunderground v.1.15,2013-01-20 05:30:00,
2013-01-20 00:35:00,34.6,32.5,30.13,South,175,0.0,1.0,92,0.00,,,0.00,0,Wunderground v.1.15,2013-01-20 05:35:00,
2013-01-20 00:40:00,35.0,33.2,30.13,South,176,0.0,1.0,93,0.00,,,0.00,0,Wunderground v.1.15,2013-01-20 05:40:00,
2013-01-20 00:50:00,34.6,32.5,30.12,South,175,0.0,1.0,92,0.00,,,0.00,0,Wunderground v.1.15,2013-01-20 05:50:00,
2013-01-20 00:55:00,34.6,32.2,30.12,South,175,0.0,1.0,91,0.00,,,0.00,0,Wunderground v.1.15,2013-01-20 05:55:00,
2013-01-20 01:05:00,35.8,34.2,30.11,South,175,0.0,1.0,94,0.00,,,0.00,0,Wunderground v.1.15,2013-01-20 06:05:00,
2013-01-20 01:10:00,36.0,34.2,30.12,South,175,0.0,1.0,93,0.00,,,0.00,0,Wunderground v.1.15,2013-01-20 06:10:00,
2013-01-20 01:15:00,35.9,34.1,30.11,South,175,0.0,1.0,93,0.00,,,0.00,0,Wunderground v.1.15,2013-01-20 06:15:00,
2013-01-20 01:20:00,36.0,34.2,30.11,South,175,0.0,1.0,93,0.00,,,0.00,0,Wunderground v.1.15,2013-01-20 06:20:00,
2013-01-20 01:25:00,35.9,34.1,30.11,South,175,0.0,1.0,93,0.00,,,0.00,0,Wunderground v.1.15,2013-01-20 06:25:00,
2013-01-20 01:30:00,35.5,33.1,30.11,South,175,0.0,1.0,91,0.00,,,0.00,0,Wunderground v.1.15,2013-01-20 06:30:00,
2013-01-20 01:40:00,35.3,32.9,30.11,South,175,0.0,1.0,91,0.00,,,0.00,0,Wunderground v.1.15,2013-01-20 06:40:00,
2013-01-20 01:45:00,35.6,33.5,30.10,South,175,0.0,1.0,92,0.00,,,0.00,0,Wunderground v.1.15,2013-01-20 06:45:00,
2013-01-20 01:50:00,35.9,33.5,30.10,South,180,0.0,1.0,91,0.00,,,0.00,0,Wunderground v.1.15,2013-01-20 06:50:00,
2013-01-20 02:00:00,36.0,33.1,30.09,South,180,0.0,1.0,89,0.00,,,0.00,0,Wunderground v.1.15,2013-01-20 07:00:00,
2013-01-20 02:05:00,35.8,32.9,30.09,South,180,0.0,1.0,89,0.00,,,0.00,0,Wunderground v.1.15,2013-01-20 07:05:00,
2013-01-20 02:15:00,35.7,33.1,30.09,South,180,0.0,1.0,90,0.00,,,0.00,0,Wunderground v.1.15,2013-01-20 07:15:00,
2013-01-20 02:20:00,35.8,32.9,30.09,South,180,0.0,1.0,89,0.00,,,0.00,0,Wunderground v.1.15,2013-01-20 07:20:00,
2013-01-20 02:25:00,35.8,32.9,30.09,South,180,0.0,1.0,89,0.00,,,0.00,0,Wunderground v.1.15,2013-01-20 07:25:00,
2013-01-20 02:30:00,35.9,33.3,30.09,South,180,0.0,1.0,90,0.00,,,0.00,0,Wunderground v.1.15,2013-01-20 07:30:00,
2013-01-20 02:35:00,36.0,33.4,30.09,South,180,0.0,1.0,90,0.00,,,0.00,0,Wunderground v.1.15,2013-01-20 07:35:00,
2013-01-20 02:40:00,36.4,33.5,30.09,South,180,0.0,1.0,89,0.00,,,0.00,0,Wunderground v.1.15,2013-01-20 07:40:00,
2013-01-20 02:45:00,36.7,33.8,30.08,South,180,0.0,1.0,89,0.00,,,0.00,0,Wunderground v.1.15,2013-01-20 07:45:00,
2013-01-20 02:50:00,36.7,33.8,30.08,South,180,0.0,1.0,89,0.00,,,0.00,0,Wunderground v.1.15,2013-01-20 07:50:00,
2013-01-20 02:55:00,36.9,33.7,30.08,South,180,0.0,1.0,88,0.00,,,0.00,0,Wunderground v.1.15,2013-01-20 07:55:00,
2013-01-20 03:05:00,37.2,33.7,30.08,South,180,0.0,1.0,87,0.00,,,0.00,0,Wunderground v.1.15,2013-01-20 08:05:00,
2013-01-20 03:10:00,37.1,33.9,30.08,South,180,0.0,1.0,88,0.00,,,0.00,0,Wunderground v.1.15,2013-01-20 08:10:00,
2013-01-20 03:15:00,36.9,33.4,30.08,South,180,0.0,1.0,87,0.00,,,0.00,0,Wunderground v.1.15,2013-01-20 08:15:00,
2013-01-20 03:20:00,37.1,33.6,30.07,South,184,0.0,1.0,87,0.00,,,0.00,0,Wunderground v.1.15,2013-01-20 08:20:00,
2013-01-20 03:25:00,37.0,33.5,30.07,South,184,0.0,1.0,87,0.00,,,0.00,0,Wunderground v.1.15,2013-01-20 08:25:00,
2013-01-20 03:30:00,37.2,34.0,30.07,South,184,0.0,1.0,88,0.00,,,0.00,0,Wunderground v.1.15,2013-01-20 08:30:00,
2013-01-20 03:35:00,37.2,34.0,30.07,South,184,0.0,1.0,88,0.00,,,0.00,0,Wunderground v.1.15,2013-01-20 08:35:00,
2013-01-20 03:40:00,37.3,33.8,30.07,South,184,0.0,1.0,87,0.00,,,0.00,0,Wunderground v.1.15,2013-01-20 08:40:00,
2013-01-20 03:45:00,37.4,33.9,30.07,South,184,0.0,1.0,87,0.00,,,0.00,0,Wunderground v.1.15,2013-01-20 08:45:00,
2013-01-20 03:50:00,37.5,34.0,30.07,South,184,0.0,1.0,87,0.00,,,0.00,0,Wunderground v.1.15,2013-01-20 08:50:00,
2013-01-20 03:55:00,37.5,34.0,30.06,South,184,0.0,1.0,87,0.00,,,0.00,0,Wunderground v.1.15,2013-01-20 08:55:00,
2013-01-20 04:00:00,37.8,34.3,30.07,SSE,167,0.0,1.0,87,0.00,,,0.00,0,Wunderground v.1.15,2013-01-20 09:00:00,
2013-01-20 04:05:00,39.0,34.0,30.06,South,191,1.0,1.0,82,0.00,,,0.00,0,Wunderground v.1.15,2013-01-20 09:05:00,
2013-01-20 04:15:00,42.0,34.3,30.06,SW,221,2.0,2.0,74,0.00,,,0.00,0,Wunderground v.1.15,2013-01-20 09:15:00,
2013-01-20 04:20:00,42.9,34.1,30.05,South,184,3.0,5.0,71,0.00,,,0.00,0,Wunderground v.1.15,2013-01-20 09:20:00,
2013-01-20 04:25:00,43.4,34.3,30.06,SW,228,3.0,5.0,70,0.00,,,0.00,0,Wunderground v.1.15,2013-01-20 09:25:00,
2013-01-20 04:30:00,43.7,34.2,30.06,West,266,2.0,2.0,69,0.00,,,0.00,0,Wunderground v.1.15,2013-01-20 09:30:00,
2013-01-20 04:35:00,43.7,34.9,30.05,NW,306,1.0,2.0,71,0.00,,,0.00,0,Wunderground v.1.15,2013-01-20 09:35:00,
2013-01-20 04:40:00,43.4,33.5,30.05,WSW,240,1.0,1.0,68,0.00,,,0.00,0,Wunderground v.1.15,2013-01-20 09:40:00,
2013-01-20 04:45:00,43.7,34.2,30.05,SW,214,1.0,5.0,69,0.00,,,0.00,0,Wunderground v.1.15,2013-01-20 09:45:00,
2013-01-20 04:50:00,43.8,34.3,30.05,SW,216,1.0,1.0,69,0.00,,,0.00,0,Wunderground v.1.15,2013-01-20 09:50:00,
2013-01-20 05:00:00,43.8,34.3,30.05,South,190,1.0,3.0,69,0.00,,,0.00,0,Wunderground v.1.15,2013-01-20 10:00:00,
2013-01-20 05:05:00,43.7,34.2,30.05,WSW,237,1.0,3.0,69,0.00,,,0.00,0,Wunderground v.1.15,2013-01-20 10:05:00,
2013-01-20 05:10:00,43.6,34.1,30.05,SW,229,0.0,1.0,69,0.00,,,0.00,0,Wunderground v.1.15,2013-01-20 10:10:00,
2013-01-20 05:20:00,43.5,34.0,30.05,WSW,251,0.0,1.0,69,0.00,,,0.00,0,Wunderground v.1.15,2013-01-20 10:20:00,
2013-01-20 05:25:00,43.4,33.9,30.05,WSW,250,0.0,1.0,69,0.00,,,0.00,0,Wunderground v.1.15,2013-01-20 10:25:00,
2013-01-20 05:30:00,43.0,34.9,30.05,WSW,246,0.0,1.0,73,0.00,,,0.00,0,Wunderground v.1.15,2013-01-20 10:30:00,
2013-01-20 05:35:00,42.7,33.9,30.05,SW,225,0.0,1.0,71,0.00,,,0.00,0,Wunderground v.1.15,2013-01-20 10:35:00,
2013-01-20 05:40:00,42.2,34.8,30.05,SW,225,0.0,1.0,75,0.00,,,0.00,0,Wunderground v.1.15,2013-01-20 10:40:00,
2013-01-20 05:45:00,41.5,34.5,30.05,SW,225,0.0,1.0,76,0.00,,,0.00,0,Wunderground v.1.15,2013-01-20 10:45:00,
2013-01-20 05:55:00,40.4,34.4,30.04,South,190,0.0,1.0,79,0.00,,,0.00,0,Wunderground v.1.15,2013-01-20 10:55:00,
2013-01-20 06:00:00,40.6,34.0,30.05,WSW,244,1.0,1.0,77,0.00,,,0.00,0,Wunderground v.1.15,2013-01-20 11:00:00,
2013-01-20 06:05:00,41.2,34.2,30.05,NW,311,1.0,1.0,76,0.00,,,0.00,0,Wunderground v.1.15,2013-01-20 11:05:00,
2013-01-20 06:10:00,41.0,34.0,30.05,West,279,0.0,1.0,76,0.00,,,0.00,0,Wunderground v.1.15,2013-01-20 11:10:00,
2013-01-20 06:15:00,40.5,34.2,30.05,West,279,0.0,1.0,78,0.00,,,0.00,0,Wunderground v.1.15,2013-01-20 11:15:00,
2013-01-20 06:20:00,39.8,33.8,30.05,West,260,0.0,1.0,79,0.00,,,0.00,0,Wunderground v.1.15,2013-01-20 11:20:00,
2013-01-20 06:25:00,39.3,33.6,30.05,WSW,237,0.0,1.0,80,0.00,,,0.00,0,Wunderground v.1.15,2013-01-20 11:25:00,
2013-01-20 06:30:00,38.9,33.3,30.05,WSW,245,0.0,1.0,80,0.00,,,0.00,0,Wunderground v.1.15,2013-01-20 11:30:00,
2013-01-20 06:35:00,38.7,33.4,30.05,WSW,245,0.0,1.0,81,0.00,,,0.00,0,Wunderground v.1.15,2013-01-20 11:35:00,
2013-01-20 06:45:00,38.6,33.3,30.05,WSW,245,0.0,1.0,81,0.00,,,0.00,0,Wunderground v.1.15,2013-01-20 11:45:00,
2013-01-20 06:50:00,38.7,33.7,30.04,WSW,245,0.0,1.0,82,0.00,,,0.00,0,Wunderground v.1.15,2013-01-20 11:50:00,
2013-01-20 06:55:00,38.8,34.1,30.04,WSW,245,0.0,1.0,83,0.00,,,0.00,0,Wunderground v.1.15,2013-01-20 11:55:00,
2013-01-20 07:05:00,38.9,34.2,30.04,WSW,245,0.0,1.0,83,0.00,,,0.00,0,Wunderground v.1.15,2013-01-20 12:05:00,
2013-01-20 07:10:00,38.9,33.9,30.05,WSW,245,0.0,1.0,82,0.00,,,0.00,0,Wunderground v.1.15,2013-01-20 12:10:00,
2013-01-20 07:15:00,39.1,33.8,30.05,WSW,237,0.0,1.0,81,0.00,,,0.00,0,Wunderground v.1.15,2013-01-20 12:15:00,
2013-01-20 07:20:00,39.2,33.9,30.05,SW,232,0.0,2.0,81,0.00,,,0.00,0,Wunderground v.1.15,2013-01-20 12:20:00,
2013-01-20 07:25:00,39.5,34.2,30.05,SW,220,0.0,2.0,81,0.00,,,0.00,0,Wunderground v.1.15,2013-01-20 12:25:00,
2013-01-20 07:30:00,39.6,33.9,30.04,SW,229,0.0,1.0,80,0.00,,,0.00,5,Wunderground v.1.15,2013-01-20 12:30:00,
2013-01-20 07:35:00,39.6,34.2,30.05,SW,223,0.0,1.0,81,0.00,,,0.00,7,Wunderground v.1.15,2013-01-20 12:35:00,
2013-01-20 07:45:00,38.9,33.9,30.05,SW,223,0.0,1.0,82,0.00,,,0.00,12,Wunderground v.1.15,2013-01-20 12:45:00,
2013-01-20 07:50:00,38.4,33.7,30.04,SW,223,0.0,1.0,83,0.00,,,0.00,18,Wunderground v.1.15,2013-01-20 12:50:00,
2013-01-20 07:55:00,38.1,33.4,30.05,SW,223,0.0,1.0,83,0.00,,,0.00,21,Wunderground v.1.15,2013-01-20 12:55:00,
2013-01-20 08:00:00,38.1,33.4,30.04,SW,223,0.0,1.0,83,0.00,,,0.00,25,Wunderground v.1.15,2013-01-20 13:00:00,
2013-01-20 08:05:00,38.4,33.7,30.04,West,267,0.0,1.0,83,0.00,,,0.00,25,Wunderground v.1.15,2013-01-20 13:05:00,
2013-01-20 08:10:00,39.3,33.6,30.05,WSW,243,0.0,4.0,80,0.00,,,0.00,21,Wunderground v.1.15,2013-01-20 13:10:00,
2013-01-20 08:15:00,40.6,33.6,30.05,WSW,249,1.0,4.0,76,0.00,,,0.00,19,Wunderground v.1.15,2013-01-20 13:15:00,
2013-01-20 08:20:00,41.6,33.9,30.05,WSW,254,2.0,2.0,74,0.00,,,0.00,19,Wunderground v.1.15,2013-01-20 13:20:00,
2013-01-20 08:25:00,42.2,33.8,30.05,WSW,256,1.0,2.0,72,0.00,,,0.00,21,Wunderground v.1.15,2013-01-20 13:25:00,
2013-01-20 08:35:00,42.6,34.2,30.05,SW,232,1.0,5.0,72,0.00,,,0.00,25,Wunderground v.1.15,2013-01-20 13:35:00,
2013-01-20 08:40:00,42.8,34.0,30.05,SW,229,1.0,3.0,71,0.00,,,0.00,25,Wunderground v.1.15,2013-01-20 13:40:00,
2013-01-20 08:45:00,43.0,33.9,30.05,WSW,238,2.0,4.0,70,0.00,,,0.00,25,Wunderground v.1.15,2013-01-20 13:45:00,
2013-01-20 08:50:00,43.2,34.1,30.05,SSW,205,2.0,3.0,70,0.00,,,0.00,26,Wunderground v.1.15,2013-01-20 13:50:00,
2013-01-20 08:55:00,43.6,34.1,30.05,SW,216,3.0,5.0,69,0.00,,,0.00,28,Wunderground v.1.15,2013-01-20 13:55:00,
2013-01-20 09:00:00,44.1,34.6,30.05,WSW,240,5.0,5.0,69,0.00,,,0.00,28,Wunderground v.1.15,2013-01-20 14:00:00,
2013-01-20 09:05:00,44.5,35.0,30.05,WSW,240,5.0,6.0,69,0.00,,,0.00,35,Wunderground v.1.15,2013-01-20 14:05:00,
2013-01-20 09:10:00,44.9,34.6,30.06,WSW,242,6.0,6.0,67,0.00,,,0.00,60,Wunderground v.1.15,2013-01-20 14:10:00,
2013-01-20 09:15:00,45.1,34.0,30.06,SW,236,6.0,6.0,65,0.00,,,0.00,40,Wunderground v.1.15,2013-01-20 14:15:00,
2013-01-20 09:25:00,45.8,34.7,30.06,SW,231,3.0,10.0,65,0.00,,,0.00,70,Wunderground v.1.15,2013-01-20 14:25:00,
2013-01-20 09:30:00,46.1,34.2,30.07,West,261,4.0,4.0,63,0.00,,,0.00,42,Wunderground v.1.15,2013-01-20 14:30:00,
2013-01-20 09:35:00,46.4,34.9,30.06,SW,227,5.0,5.0,64,0.00,,,0.00,105,Wunderground v.1.15,2013-01-20 14:35:00,
2013-01-20 09:40:00,46.8,34.0,30.06,WSW,248,4.0,4.0,61,0.00,,,0.00,142,Wunderground v.1.15,2013-01-20 14:40:00,
2013-01-20 09:45:00,47.2,35.2,30.06,WSW,241,4.0,4.0,63,0.00,,,0.00,167,Wunderground v.1.15,2013-01-20 14:45:00,
2013-01-20 09:50:00,47.6,35.2,30.06,West,275,3.0,3.0,62,0.00,,,0.00,336,Wunderground v.1.15,2013-01-20 14:50:00,
2013-01-20 09:55:00,48.1,34.4,30.06,SW,230,3.0,3.0,59,0.00,,,0.00,376,Wunderground v.1.15,2013-01-20 14:55:00,
2013-01-20 10:00:00,48.6,34.5,30.06,WSW,237,4.0,4.0,58,0.00,,,0.00,388,Wunderground v.1.15,2013-01-20 15:00:00,
2013-01-20 10:05:00,49.1,34.5,30.06,West,262,4.0,4.0,57,0.00,,,0.00,399,Wunderground v.1.15,2013-01-20 15:05:00,
2013-01-20 10:15:00,49.8,35.2,30.06,WSW,256,4.0,6.0,57,0.00,,,0.00,420,Wunderground v.1.15,2013-01-20 15:15:00,
2013-01-20 10:20:00,50.1,35.4,30.06,WSW,256,3.0,7.0,57,0.00,,,0.00,432,Wunderground v.1.15,2013-01-20 15:20:00,
2013-01-20 10:25:00,50.6,35.0,30.06,SW,230,5.0,8.0,55,0.00,,,0.00,441,Wunderground v.1.15,2013-01-20 15:25:00,
2013-01-20 10:30:00,50.9,36.2,30.06,West,267,5.0,5.0,57,0.00,,,0.00,452,Wunderground v.1.15,2013-01-20 15:30:00,
2013-01-20 10:35:00,51.4,35.8,30.06,SW,232,4.0,6.0,55,0.00,,,0.00,462,Wunderground v.1.15,2013-01-20 15:35:00,
2013-01-20 10:40:00,51.7,36.0,30.06,SW,221,7.0,7.0,55,0.00,,,0.00,471,Wunderground v.1.15,2013-01-20 15:40:00,
2013-01-20 10:45:00,51.9,35.8,30.05,West,275,6.0,8.0,54,0.00,,,0.00,480,Wunderground v.1.15,2013-01-20 15:45:00,
2013-01-20 10:50:00,52.1,35.9,30.05,WSW,241,6.0,6.0,54,0.00,,,0.00,489,Wunderground v.1.15,2013-01-20 15:50:00,
2013-01-20 10:55:00,52.3,35.7,30.05,West,279,6.0,6.0,53,0.00,,,0.00,497,Wunderground v.1.15,2013-01-20 15:55:00,
2013-01-20 11:05:00,52.7,36.0,30.04,West,263,5.0,6.0,53,0.00,,,0.00,513,Wunderground v.1.15,2013-01-20 16:05:00,
2013-01-20 11:10:00,53.0,36.3,30.04,WSW,252,7.0,13.0,53,0.00,,,0.00,520,Wunderground v.1.15,2013-01-20 16:10:00,
2013-01-20 11:15:00,53.1,36.4,30.03,WSW,252,9.0,13.0,53,0.00,,,0.00,526,Wunderground v.1.15,2013-01-20 16:15:00,
2013-01-20 11:20:00,53.2,38.4,30.03,WNW,298,9.0,11.0,57,0.00,,,0.00,533,Wunderground v.1.15,2013-01-20 16:20:00,
2013-01-20 11:25:00,53.2,37.0,30.03,WSW,244,9.0,11.0,54,0.00,,,0.00,540,Wunderground v.1.15,2013-01-20 16:25:00,
2013-01-20 11:30:00,53.5,37.3,30.03,WNW,288,7.0,7.0,54,0.00,,,0.00,543,Wunderground v.1.15,2013-01-20 16:30:00,
2013-01-20 11:35:00,53.9,36.2,30.03,WNW,290,5.0,7.0,51,0.00,,,0.00,550,Wunderground v.1.15,2013-01-20 16:35:00,
2013-01-20 11:40:00,53.8,37.5,30.02,West,262,5.0,5.0,54,0.00,,,0.00,555,Wunderground v.1.15,2013-01-20 16:40:00,
2013-01-20 11:50:00,54.9,37.1,30.02,WSW,246,5.0,5.0,51,0.00,,,0.00,561,Wunderground v.1.15,2013-01-20 16:50:00,
2013-01-20 11:55:00,55.1,37.8,30.01,West,276,6.0,6.0,52,0.00,,,0.00,566,Wunderground v.1.15,2013-01-20 16:55:00,
2013-01-20 12:00:00,55.1,38.3,30.01,WNW,300,7.0,9.0,53,0.00,,,0.00,568,Wunderground v.1.15,2013-01-20 17:00:00,
2013-01-20 12:05:00,55.6,37.7,30.01,WNW,283,8.0,9.0,51,0.00,,,0.00,570,Wunderground v.1.15,2013-01-20 17:05:00,
2013-01-20 12:15:00,55.8,36.9,30.00,West,279,11.0,11.0,49,0.00,,,0.00,573,Wunderground v.1.15,2013-01-20 17:15:00,
2013-01-20 12:25:00,55.7,38.3,30.00,WNW,284,10.0,12.0,52,0.00,,,0.00,575,Wunderground v.1.15,2013-01-20 17:25:00,
2013-01-20 12:30:00,56.1,38.7,30.00,WNW,299,9.0,9.0,52,0.00,,,0.00,577,Wunderground v.1.15,2013-01-20 17:30:00,
2013-01-20 12:35:00,55.9,38.0,29.99,WSW,250,8.0,9.0,51,0.00,,,0.00,575,Wunderground v.1.15,2013-01-20 17:35:00,
2013-01-20 12:40:00,56.7,37.2,29.99,West,271,7.0,8.0,48,0.00,,,0.00,575,Wunderground v.1.15,2013-01-20 17:40:00,
2013-01-20 12:45:00,56.0,38.1,29.99,WNW,296,9.0,13.0,51,0.00,,,0.00,578,Wunderground v.1.15,2013-01-20 17:45:00,
2013-01-20 12:50:00,56.5,37.6,29.99,West,280,11.0,11.0,49,0.00,,,0.00,573,Wunderground v.1.15,2013-01-20 17:50:00,
2013-01-20 12:55:00,56.7,37.7,29.99,WNW,298,9.0,15.0,49,0.00,,,0.00,573,Wunderground v.1.15,2013-01-20 17:55:00,
2013-01-20 13:00:00,55.8,38.4,29.98,WNW,303,8.0,10.0,52,0.00,,,0.00,570,Wunderground v.1.15,2013-01-20 18:00:00,
2013-01-20 13:05:00,55.7,37.3,29.98,NW,308,9.0,10.0,50,0.00,,,0.00,566,Wunderground v.1.15,2013-01-20 18:05:00,
2013-01-20 13:15:00,56.6,37.6,29.98,NW,306,8.0,9.0,49,0.00,,,0.00,557,Wunderground v.1.15,2013-01-20 18:15:00,
2013-01-20 13:20:00,56.6,38.7,29.98,West,277,7.0,7.0,51,0.00,,,0.00,554,Wunderground v.1.15,2013-01-20 18:20:00,
2013-01-20 13:25:00,56.4,39.0,29.97,WNW,295,8.0,8.0,52,0.00,,,0.00,548,Wunderground v.1.15,2013-01-20 18:25:00,
2013-01-20 13:30:00,55.7,40.2,29.97,WNW,296,7.0,12.0,56,0.00,,,0.00,543,Wunderground v.1.15,2013-01-20 18:30:00,
2013-01-20 13:35:00,55.7,38.3,29.97,West,275,8.0,12.0,52,0.00,,,0.00,540,Wunderground v.1.15,2013-01-20 18:35:00,
2013-01-20 13:40:00,56.6,39.2,29.97,NW,306,9.0,13.0,52,0.00,,,0.00,531,Wunderground v.1.15,2013-01-20 18:40:00,
2013-01-20 13:45:00,56.6,36.6,29.97,West,269,9.0,13.0,47,0.00,,,0.00,526,Wunderground v.1.15,2013-01-20 18:45:00,
2013-01-20 13:50:00,57.3,37.2,29.97,West,259,10.0,10.0,47,0.00,,,0.00,519,Wunderground v.1.15,2013-01-20 18:50:00,
2013-01-20 13:55:00,57.4,36.8,29.97,West,271,11.0,12.0,46,0.00,,,0.00,510,Wunderground v.1.15,2013-01-20 18:55:00,
2013-01-20 14:05:00,56.4,39.0,29.97,WNW,296,11.0,15.0,52,0.00,,,0.00,497,Wunderground v.1.15,2013-01-20 19:05:00,
2013-01-20 14:10:00,56.6,38.2,29.97,WNW,302,11.0,11.0,50,0.00,,,0.00,489,Wunderground v.1.15,2013-01-20 19:10:00,
2013-01-20 14:15:00,56.2,37.8,29.97,NW,306,10.0,11.0,50,0.00,,,0.00,480,Wunderground v.1.15,2013-01-20 19:15:00,
2013-01-20 14:25:00,55.4,40.4,29.97,WNW,294,9.0,9.0,57,0.00,,,0.00,464,Wunderground v.1.15,2013-01-20 19:25:00,
2013-01-20 14:30:00,56.7,38.3,29.96,NW,305,7.0,7.0,50,0.00,,,0.00,454,Wunderground v.1.15,2013-01-20 19:30:00,
2013-01-20 14:35:00,57.1,37.6,29.97,West,259,6.0,7.0,48,0.00,,,0.00,443,Wunderground v.1.15,2013-01-20 19:35:00,
2013-01-20 14:40:00,57.3,37.2,29.97,WNW,290,7.0,12.0,47,0.00,,,0.00,432,Wunderground v.1.15,2013-01-20 19:40:00,
2013-01-20 14:45:00,58.0,38.4,29.97,WNW,295,7.0,12.0,48,0.00,,,0.00,422,Wunderground v.1.15,2013-01-20 19:45:00,
2013-01-20 14:50:00,57.7,37.6,29.97,NW,311,8.0,12.0,47,0.00,,,0.00,410,Wunderground v.1.15,2013-01-20 19:50:00,
2013-01-20 15:00:00,58.0,37.3,29.96,West,271,10.0,11.0,46,0.00,,,0.00,387,Wunderground v.1.15,2013-01-20 20:00:00,
2013-01-20 15:10:00,58.2,37.5,29.96,WNW,294,10.0,10.0,46,0.00,,,0.00,362,Wunderground v.1.15,2013-01-20 20:10:00,
2013-01-20 15:15:00,57.8,37.1,29.96,West,262,9.0,10.0,46,0.00,,,0.00,352,Wunderground v.1.15,2013-01-20 20:15:00,
2013-01-20 15:20:00,58.2,38.1,29.96,WNW,290,9.0,9.0,47,0.00,,,0.00,341,Wunderground v.1.15,2013-01-20 20:20:00,
2013-01-20 15:25:00,58.0,38.9,29.96,West,265,7.0,9.0,49,0.00,,,0.00,325,Wunderground v.1.15,2013-01-20 20:25:00,
2013-01-20 15:35:00,58.5,38.9,29.96,WNW,287,5.0,5.0,48,0.00,,,0.00,299,Wunderground v.1.15,2013-01-20 20:35:00,
2013-01-20 15:40:00,58.5,37.2,29.96,WNW,288,6.0,9.0,45,0.00,,,0.00,285,Wunderground v.1.15,2013-01-20 20:40:00,
2013-01-20 15:45:00,58.6,37.3,29.97,WSW,255,9.0,9.0,45,0.00,,,0.00,269,Wunderground v.1.15,2013-01-20 20:45:00,
2013-01-20 15:50:00,58.3,38.1,29.97,West,281,9.0,9.0,47,0.00,,,0.00,253,Wunderground v.1.15,2013-01-20 20:50:00,
2013-01-20 15:55:00,58.2,37.5,29.96,West,272,6.0,9.0,46,0.00,,,0.00,241,Wunderground v.1.15,2013-01-20 20:55:00,
2013-01-20 16:00:00,58.4,38.2,29.96,WNW,286,7.0,9.0,47,0.00,,,0.00,223,Wunderground v.1.15,2013-01-20 21:00:00,
2013-01-20 16:10:00,58.2,39.1,29.97,West,271,4.0,4.0,49,0.00,,,0.00,186,Wunderground v.1.15,2013-01-20 21:10:00,
2013-01-20 16:15:00,58.5,38.3,29.97,West,271,5.0,7.0,47,0.00,,,0.00,167,Wunderground v.1.15,2013-01-20 21:15:00,
2013-01-20 16:20:00,58.3,40.2,29.97,West,279,5.0,5.0,51,0.00,,,0.00,153,Wunderground v.1.15,2013-01-20 21:20:00,
2013-01-20 16:25:00,57.6,38.6,29.97,WNW,290,4.0,7.0,49,0.00,,,0.00,134,Wunderground v.1.15,2013-01-20 21:25:00,
2013-01-20 16:30:00,57.5,40.0,29.97,NW,313,6.0,6.0,52,0.00,,,0.00,118,Wunderground v.1.15,2013-01-20 21:30:00,
2013-01-20 16:35:00,56.8,40.8,29.97,WNW,300,7.0,7.0,55,0.00,,,0.00,100,Wunderground v.1.15,2013-01-20 21:35:00,
2013-01-20 16:40:00,56.0,40.5,29.97,WNW,286,5.0,5.0,56,0.00,,,0.00,86,Wunderground v.1.15,2013-01-20 21:40:00,
2013-01-20 16:45:00,56.6,38.7,29.97,WNW,298,4.0,5.0,51,0.00,,,0.00,70,Wunderground v.1.15,2013-01-20 21:45:00,
2013-01-20 16:50:00,57.7,37.0,29.98,West,280,3.0,3.0,46,0.00,,,0.00,56,Wunderground v.1.15,2013-01-20 21:50:00,
2013-01-20 16:55:00,57.1,39.6,29.98,West,269,2.0,3.0,52,0.00,,,0.00,46,Wunderground v.1.15,2013-01-20 21:55:00,
2013-01-20 17:05:00,57.4,38.9,29.98,West,264,2.0,4.0,50,0.00,,,0.00,26,Wunderground v.1.15,2013-01-20 22:05:00,
2013-01-20 17:10:00,56.9,38.4,29.98,West,261,2.0,3.0,50,0.00,,,0.00,21,Wunderground v.1.15,2013-01-20 22:10:00,
2013-01-20 17:15:00,56.7,38.3,29.98,WNW,290,2.0,3.0,50,0.00,,,0.00,14,Wunderground v.1.15,2013-01-20 22:15:00,
2013-01-20 17:20:00,56.8,36.8,29.98,WNW,286,1.0,1.0,47,0.00,,,0.00,7,Wunderground v.1.15,2013-01-20 22:20:00,
2013-01-20 17:25:00,56.7,37.2,29.98,WNW,296,1.0,6.0,48,0.00,,,0.00,5,Wunderground v.1.15,2013-01-20 22:25:00,
2013-01-20 17:30:00,56.8,36.8,29.99,West,273,3.0,7.0,47,0.00,,,0.00,0,Wunderground v.1.15,2013-01-20 22:30:00,
2013-01-20 17:40:00,56.0,40.1,29.99,NW,304,3.0,3.0,55,0.00,,,0.00,0,Wunderground v.1.15,2013-01-20 22:40:00,
2013-01-20 17:45:00,54.6,39.2,30.00,NW,313,1.0,3.0,56,0.00,,,0.00,0,Wunderground v.1.15,2013-01-20 22:45:00,
2013-01-20 17:50:00,53.9,38.6,30.00,NNE,24,0.0,1.0,56,0.00,,,0.00,0,Wunderground v.1.15,2013-01-20 22:50:00,
2013-01-20 17:55:00,53.2,39.2,30.00,North,9,0.0,1.0,59,0.00,,,0.00,0,Wunderground v.1.15,2013-01-20 22:55:00,
2013-01-20 18:00:00,52.6,39.9,30.00,North,9,0.0,1.0,62,0.00,,,0.00,0,Wunderground v.1.15,2013-01-20 23:00:00,
2013-01-20 18:05:00,51.9,39.3,30.01,North,9,0.0,1.0,62,0.00,,,0.00,0,Wunderground v.1.15,2013-01-20 23:05:00,
2013-01-20 18:10:00,51.5,38.9,30.02,North,9,0.0,1.0,62,0.00,,,0.00,0,Wunderground v.1.15,2013-01-20 23:10:00,
2013-01-20 18:20:00,50.4,37.4,30.02,North,5,0.0,1.0,61,0.00,,,0.00,0,Wunderground v.1.15,2013-01-20 23:20:00,
2013-01-20 18:25:00,49.9,37.8,30.03,North,9,0.0,1.0,63,0.00,,,0.00,0,Wunderground v.1.15,2013-01-20 23:25:00,
2013-01-20 18:30:00,49.4,37.7,30.03,North,9,0.0,1.0,64,0.00,,,0.00,0,Wunderground v.1.15,2013-01-20 23:30:00,
2013-01-20 18:35:00,48.7,37.5,30.03,North,9,0.0,1.0,65,0.00,,,0.00,0,Wunderground v.1.15,2013-01-20 23:35:00,
2013-01-20 18:40:00,48.2,38.1,30.04,North,5,0.0,1.0,68,0.00,,,0.00,0,Wunderground v.1.15,2013-01-20 23:40:00,
2013-01-20 18:45:00,47.8,38.5,30.04,North,9,0.0,1.0,70,0.00,,,0.00,0,Wunderground v.1.15,2013-01-20 23:45:00,
2013-01-20 18:55:00,47.0,38.4,30.04,North,9,0.0,1.0,72,0.00,,,0.00,0,Wunderground v.1.15,2013-01-20 23:55:00,
2013-01-20 19:00:00,46.4,37.5,30.04,North,9,0.0,1.0,71,0.00,,,0.00,0,Wunderground v.1.15,2013-01-21 00:00:00,
2013-01-20 19:05:00,45.9,37.4,30.04,North,9,0.0,1.0,72,0.00,,,0.00,0,Wunderground v.1.15,2013-01-21 00:05:00,
2013-01-20 19:10:00,45.5,36.6,30.05,North,5,0.0,1.0,71,0.00,,,0.00,0,Wunderground v.1.15,2013-01-21 00:10:00,
2013-01-20 19:15:00,45.4,37.9,30.05,North,5,0.0,1.0,75,0.00,,,0.00,0,Wunderground v.1.15,2013-01-21 00:15:00,
2013-01-20 19:20:00,44.7,37.9,30.05,North,9,0.0,1.0,77,0.00,,,0.00,0,Wunderground v.1.15,2013-01-21 00:20:00,
2013-01-20 19:25:00,44.0,37.6,30.05,North,5,0.0,1.0,78,0.00,,,0.00,0,Wunderground v.1.15,2013-01-21 00:25:00,
2013-01-20 19:30:00,43.6,37.8,30.05,North,9,0.0,1.0,80,0.00,,,0.00,0,Wunderground v.1.15,2013-01-21 00:30:00,
2013-01-20 19:40:00,43.4,36.0,30.05,North,5,0.0,1.0,75,0.00,,,0.00,0,Wunderground v.1.15,2013-01-21 00:40:00,
2013-01-20 19:45:00,43.6,35.9,30.05,North,5,0.0,1.0,74,0.00,,,0.00,0,Wunderground v.1.15,2013-01-21 00:45:00,
2013-01-20 19:50:00,43.6,37.2,30.05,North,9,0.0,1.0,78,0.00,,,0.00,0,Wunderground v.1.15,2013-01-21 00:50:00,
2013-01-20 19:55:00,43.1,37.0,30.06,North,9,0.0,1.0,79,0.00,,,0.00,0,Wunderground v.1.15,2013-01-21 00:55:00,
2013-01-20 20:00:00,42.9,37.2,30.06,North,5,0.0,1.0,80,0.00,,,0.00,0,Wunderground v.1.15,2013-01-21 01:00:00,
2013-01-20 20:05:00,42.9,36.5,30.06,North,9,0.0,1.0,78,0.00,,,0.00,0,Wunderground v.1.15,2013-01-21 01:05:00,
2013-01-20 20:10:00,42.9,36.5,30.06,North,5,0.0,1.0,78,0.00,,,0.00,0,Wunderground v.1.15,2013-01-21 01:10:00,
2013-01-20 20:20:00,42.5,37.1,30.06,North,5,0.0,1.0,81,0.00,,,0.00,0,Wunderground v.1.15,2013-01-21 01:20:00,
2013-01-20 20:25:00,42.2,37.1,30.06,North,9,0.0,1.0,82,0.00,,,0.00,0,Wunderground v.1.15,2013-01-21 01:25:00,
2013-01-20 20:30:00,42.3,37.5,30.06,North,5,0.0,1.0,83,0.00,,,0.00,0,Wunderground v.1.15,2013-01-21 01:30:00,
2013-01-20 20:35:00,42.5,37.4,30.06,North,5,0.0,1.0,82,0.00,,,0.00,0,Wunderground v.1.15,2013-01-21 01:35:00,
2013-01-20 20:40:00,42.5,36.8,30.06,North,9,0.0,1.0,80,0.00,,,0.00,0,Wunderground v.1.15,2013-01-21 01:40:00,
2013-01-20 20:45:00,42.5,36.4,30.06,North,5,0.0,1.0,79,0.00,,,0.00,0,Wunderground v.1.15,2013-01-21 01:45:00,
2013-01-20 20:55:00,42.4,36.3,30.06,North,5,0.0,1.0,79,0.00,,,0.00,0,Wunderground v.1.15,2013-01-21 01:55:00,
2013-01-20 21:05:00,41.9,36.2,30.07,North,5,0.0,1.0,80,0.00,,,0.00,0,Wunderground v.1.15,2013-01-21 02:05:00,
2013-01-20 21:10:00,41.5,35.8,30.07,North,9,0.0,1.0,80,0.00,,,0.00,0,Wunderground v.1.15,2013-01-21 02:10:00,
2013-01-20 21:15:00,41.6,35.2,30.07,North,5,0.0,1.0,78,0.00,,,0.00,0,Wunderground v.1.15,2013-01-21 02:15:00,
2013-01-20 21:20:00,42.1,35.7,30.07,North,5,0.0,1.0,78,0.00,,,0.00,0,Wunderground v.1.15,2013-01-21 02:20:00,
2013-01-20 21:25:00,42.4,36.0,30.07,North,5,0.0,1.0,78,0.00,,,0.00,0,Wunderground v.1.15,2013-01-21 02:25:00,
2013-01-20 21:30:00,42.2,36.8,30.07,North,9,0.0,1.0,81,0.00,,,0.00,0,Wunderground v.1.15,2013-01-21 02:30:00,
2013-01-20 21:35:00,41.5,35.8,30.08,North,9,0.0,1.0,80,0.00,,,0.00,0,Wunderground v.1.15,2013-01-21 02:35:00,
2013-01-20 21:40:00,41.3,35.9,30.08,North,5,0.0,1.0,81,0.00,,,0.00,0,Wunderground v.1.15,2013-01-21 02:40:00,
2013-01-20 21:50:00,41.3,35.6,30.07,North,5,0.0,1.0,80,0.00,,,0.00,0,Wunderground v.1.15,2013-01-21 02:50:00,
2013-01-20 21:55:00,40.9,35.8,30.07,North,5,0.0,1.0,82,0.00,,,0.00,0,Wunderground v.1.15,2013-01-21 02:55:00,
2013-01-20 22:00:00,40.5,35.4,30.07,North,5,0.0,1.0,82,0.00,,,0.00,0,Wunderground v.1.15,2013-01-21 03:00:00,
2013-01-20 22:05:00,40.4,35.6,30.08,North,5,0.0,1.0,83,0.00,,,0.00,0,Wunderground v.1.15,2013-01-21 03:05:00,
2013-01-20 22:10:00,40.1,35.7,30.08,North,9,0.0,1.0,84,0.00,,,0.00,0,Wunderground v.1.15,2013-01-21 03:10:00,
2013-01-20 22:15:00,39.7,35.3,30.08,North,5,0.0,1.0,84,0.00,,,0.00,0,Wunderground v.1.15,2013-01-21 03:15:00,
2013-01-20 22:20:00,39.5,35.4,30.08,North,9,0.0,1.0,85,0.00,,,0.00,0,Wunderground v.1.15,2013-01-21 03:20:00,
2013-01-20 22:30:00,40.2,36.6,30.08,North,5,0.0,1.0,87,0.00,,,0.00,0,Wunderground v.1.15,2013-01-21 03:30:00,
2013-01-20 22:35:00,40.2,36.1,30.08,North,9,0.0,1.0,85,0.00,,,0.00,0,Wunderground v.1.15,2013-01-21 03:35:00,
2013-01-20 22:45:00,39.3,35.5,30.08,North,5,0.0,1.0,86,0.00,,,0.00,0,Wunderground v.1.15,2013-01-21 03:45:00,
2013-01-20 22:50:00,39.2,35.7,30.08,North,5,0.0,1.0,87,0.00,,,0.00,0,Wunderground v.1.15,2013-01-21 03:50:00,
2013-01-20 23:00:00,39.1,35.8,30.08,North,9,0.0,1.0,88,0.00,,,0.00,0,Wunderground v.1.15,2013-01-21 04:00:00,
2013-01-20 23:05:00,39.1,36.4,30.08,North,9,0.0,1.0,90,0.00,,,0.00,0,Wunderground v.1.15,2013-01-21 04:05:00,
2013-01-20 23:10:00,39.0,36.3,30.08,North,9,0.0,1.0,90,0.00,,,0.00,0,Wunderground v.1.15,2013-01-21 04:10:00,
2013-01-20 23:15:00,38.8,36.1,30.08,North,9,0.0,1.0,90,0.00,,,0.00,0,Wunderground v.1.15,2013-01-21 04:15:00,
2013-01-20 23:20:00,38.5,35.5,30.08,North,9,0.0,1.0,89,0.00,,,0.00,0,Wunderground v.1.15,2013-01-21 04:20:00,
2013-01-20 23:25:00,38.2,35.5,30.08,North,5,0.0,1.0,90,0.00,,,0.00,0,Wunderground v.1.15,2013-01-21 04:25:00,
2013-01-20 23:35:00,37.9,35.2,30.07,North,9,0.0,1.0,90,0.00,,,0.00,0,Wunderground v.1.15,2013-01-21 04:35:00,
2013-01-20 23:40:00,37.8,35.4,30.07,North,9,0.0,1.0,91,0.00,,,0.00,0,Wunderground v.1.15,2013-01-21 04:40:00,
2013-01-20 23:45:00,37.7,35.3,30.07,North,9,0.0,1.0,91,0.00,,,0.00,0,Wunderground v.1.15,2013-01-21 04:45:00,
2013-01-20 23:55:00,37.5,35.1,30.08,North,5,0.0,1.0,91,0.00,,,0.00,0,Wunderground v.1.15,2013-01-21 04:55:00,